createdAt,value
2023-03-25T00:00:18.380Z,99953.41
2023-03-25T00:02:47.919Z,99946.41
2023-03-25T00:05:16.043Z,99940.03
2023-03-25T00:07:44.426Z,99949.97
2023-03-25T00:10:13.335Z,99948.84
2023-03-25T00:12:41.217Z,99947.22
2023-03-25T00:15:11.185Z,99880.84
2023-03-25T00:17:38.886Z,99941.84
2023-03-25T00:20:11.540Z,99940.50
2023-03-25T00:22:41.743Z,99940.22
2023-03-25T00:25:17.841Z,99941.03
2023-03-25T00:27:47.036Z,99945.25
2023-03-25T00:30:18.917Z,99933.16
2023-03-25T00:32:50.365Z,99927.28
2023-03-25T00:35:19.991Z,99927.75
2023-03-25T00:37:57.810Z,99925.81
2023-03-25T00:40:25.199Z,99920.72
2023-03-25T00:42:52.201Z,99922.56
2023-03-25T00:45:19.877Z,99922.69
2023-03-25T00:47:47.078Z,99919.09
2023-03-25T00:50:14.701Z,99921.03
2023-03-25T00:52:41.758Z,99920.25
2023-03-25T00:55:08.934Z,99924.78
2023-03-25T00:57:36.406Z,99922.34
2023-03-25T01:00:08.475Z,99929.22
2023-03-25T01:02:36.125Z,99927.56
2023-03-25T01:05:04.367Z,99923.16
2023-03-25T01:07:32.373Z,99927.41
2023-03-25T01:10:00.078Z,99927.53
2023-03-25T01:12:27.628Z,99926.72
2023-03-25T01:14:56.193Z,99919.56
2023-03-25T01:17:23.424Z,99921.34
2023-03-25T01:19:51.098Z,99907.94
2023-03-25T01:22:18.351Z,99919.22
2023-03-25T01:24:45.685Z,99903.41
2023-03-25T01:27:12.481Z,99907.63
2023-03-25T01:29:39.447Z,99894.06
2023-03-25T01:32:06.778Z,99905.19
2023-03-25T01:34:34.070Z,99897.31
2023-03-25T01:37:01.280Z,99899.13
2023-03-25T01:39:28.437Z,99897.84
2023-03-25T01:41:55.566Z,99892.91
2023-03-25T01:44:22.458Z,99886.03
2023-03-25T01:46:54.184Z,99892.22
2023-03-25T01:49:54.483Z,99890.06
2023-03-25T01:52:27.089Z,99892.47
2023-03-25T01:54:56.062Z,99889.19
2023-03-25T01:57:24.959Z,99883.44
2023-03-25T01:59:55.232Z,99881.81
2023-03-25T02:02:25.690Z,99875.78
2023-03-25T02:05:02.287Z,99876.41
2023-03-25T02:07:32.873Z,99875.25
2023-03-25T02:10:02.734Z,99873.63
2023-03-25T02:12:29.674Z,99877.22
2023-03-25T02:15:01.002Z,99872.66
2023-03-25T02:18:29.381Z,99869.41
2023-03-25T02:21:27.307Z,99871.03
2023-03-25T02:24:14.271Z,99869.72
2023-03-25T02:27:01.260Z,99865.44
2023-03-25T02:29:59.892Z,99870.06
2023-03-25T02:32:38.339Z,99862.84
2023-03-25T02:35:42.370Z,99852.81
2023-03-25T02:38:28.299Z,99860.63
2023-03-25T02:41:05.401Z,99861.97
2023-03-25T02:43:38.528Z,99852.00
2023-03-25T02:46:09.977Z,99858.50
2023-03-25T02:49:10.102Z,99853.09
2023-03-25T02:51:49.411Z,99843.91
2023-03-25T02:54:17.323Z,99845.19
2023-03-25T02:56:47.582Z,99841.72
2023-03-25T02:59:15.844Z,99846.47
2023-03-25T03:01:43.211Z,99840.91
2023-03-25T03:04:12.892Z,99833.53
2023-03-25T03:06:42.818Z,99842.53
2023-03-25T03:09:19.231Z,99840.50
2023-03-25T03:12:09.798Z,99838.88
2023-03-25T03:15:11.549Z,99840.91
2023-03-25T03:18:02.830Z,99836.63
2023-03-25T03:20:32.849Z,99837.09
2023-03-25T03:23:28.889Z,99839.06
2023-03-25T03:26:09.603Z,99837.75
2023-03-25T03:28:47.222Z,99823.38
2023-03-25T03:32:06.608Z,99841.50
2023-03-25T03:35:12.218Z,99836.59
2023-03-25T03:37:46.310Z,99837.41
2023-03-25T03:40:20.778Z,99844.44
2023-03-25T03:43:04.862Z,99839.53
2023-03-25T03:45:38.260Z,99838.38
2023-03-25T03:48:14.149Z,99838.53
2023-03-25T03:50:48.936Z,99836.44
2023-03-25T03:53:22.655Z,99794.66
2023-03-25T03:56:10.445Z,99831.97
2023-03-25T03:58:43.178Z,99831.34
2023-03-25T04:01:30.731Z,99827.28
2023-03-25T04:04:01.340Z,99826.47
2023-03-25T04:06:31.151Z,99829.88
2023-03-25T04:09:27.320Z,99830.06
2023-03-25T04:12:03.334Z,99831.94
2023-03-25T04:14:31.982Z,99818.34
2023-03-25T04:16:59.927Z,99832.66
2023-03-25T04:19:27.312Z,99826.97
2023-03-25T04:21:54.255Z,99846.25
2023-03-25T04:24:21.081Z,99839.81
2023-03-25T04:26:47.989Z,99866.84
2023-03-25T04:29:15.081Z,99878.16
2023-03-25T04:31:50.650Z,99874.38
2023-03-25T04:34:17.856Z,99891.72
2023-03-25T04:36:44.749Z,99889.81
2023-03-25T04:39:13.918Z,99892.03
2023-03-25T04:41:40.748Z,99889.63
2023-03-25T04:44:10.407Z,99879.03
2023-03-25T04:46:38.455Z,99855.09
2023-03-25T04:49:14.458Z,99866.81
2023-03-25T04:51:50.824Z,99884.13
2023-03-25T04:54:19.004Z,99878.91
2023-03-25T04:56:48.094Z,99868.09
2023-03-25T04:59:16.095Z,99865.66
2023-03-25T05:01:46.182Z,99856.41
2023-03-25T05:04:17.846Z,99860.81
2023-03-25T05:06:48.635Z,99850.19
2023-03-25T05:09:19.402Z,99845.31
2023-03-25T05:11:47.046Z,99846.28
2023-03-25T05:14:16.873Z,99845.16
2023-03-25T05:16:45.036Z,99845.00
2023-03-25T05:19:12.852Z,99840.75
2023-03-25T05:21:41.396Z,99847.44
2023-03-25T05:24:11.018Z,99854.09
2023-03-25T05:26:39.973Z,99787.13
2023-03-25T05:29:09.974Z,99851.00
2023-03-25T05:31:37.072Z,99843.84
2023-03-25T05:34:06.859Z,99846.94
2023-03-25T05:36:33.853Z,99857.22
2023-03-25T05:39:00.950Z,99852.63
2023-03-25T05:41:39.298Z,99861.44
2023-03-25T05:44:08.212Z,99850.97
2023-03-25T05:46:35.141Z,99866.13
2023-03-25T05:49:02.202Z,99863.16
2023-03-25T05:51:37.905Z,99875.44
2023-03-25T05:54:11.539Z,99869.25
2023-03-25T05:56:39.825Z,99874.91
2023-03-25T05:59:06.856Z,99871.50
2023-03-25T06:01:34.404Z,99864.78
2023-03-25T06:04:03.160Z,99871.63
2023-03-25T06:06:32.434Z,99873.72
2023-03-25T06:08:59.740Z,99876.50
2023-03-25T06:11:26.749Z,99880.28
2023-03-25T06:13:53.761Z,99882.56
2023-03-25T06:16:23.338Z,99874.50
2023-03-25T06:18:56.462Z,99868.19
2023-03-25T06:21:24.116Z,99881.84
2023-03-25T06:23:51.136Z,99853.47
2023-03-25T06:26:19.747Z,99873.53
2023-03-25T06:28:47.193Z,99879.13
2023-03-25T06:31:20.787Z,99883.09
2023-03-25T06:33:49.277Z,99882.69
2023-03-25T06:36:19.031Z,99875.16
2023-03-25T06:38:50.603Z,99874.97
2023-03-25T06:41:20.698Z,99879.16
2023-03-25T06:43:48.791Z,99877.75
2023-03-25T06:46:17.044Z,99887.13
2023-03-25T06:48:44.376Z,99873.53
2023-03-25T06:51:11.376Z,99883.13
2023-03-25T06:53:38.534Z,99860.44
2023-03-25T06:56:05.852Z,99858.97
2023-03-25T06:58:35.456Z,99840.19
2023-03-25T07:01:07.761Z,99879.28
2023-03-25T07:03:36.844Z,99867.44
2023-03-25T07:06:05.649Z,99863.25
2023-03-25T07:08:33.204Z,99858.03
2023-03-25T07:11:07.757Z,99860.44
2023-03-25T07:13:35.513Z,99864.53
2023-03-25T07:16:03.261Z,99877.22
2023-03-25T07:18:30.887Z,99867.13
2023-03-25T07:20:57.964Z,99882.03
2023-03-25T07:23:24.947Z,99889.88
2023-03-25T07:25:52.531Z,99887.88
2023-03-25T07:28:20.550Z,99889.69
2023-03-25T07:30:47.704Z,99890.50
2023-03-25T07:33:14.865Z,99891.75
2023-03-25T07:35:41.953Z,99889.84
2023-03-25T07:38:11.253Z,99889.03
2023-03-25T07:40:38.430Z,99894.13
2023-03-25T07:43:05.478Z,99886.78
2023-03-25T07:45:55.903Z,99894.91
2023-03-25T07:48:19.139Z,99885.06
2023-03-25T07:50:46.222Z,99881.03
2023-03-25T07:53:13.090Z,99867.47
2023-03-25T07:55:39.972Z,99893.09
2023-03-25T07:58:06.950Z,99826.06
2023-03-25T08:00:34.039Z,99892.47
2023-03-25T08:03:00.964Z,99887.78
2023-03-25T08:05:28.185Z,99883.59
2023-03-25T08:07:55.720Z,99898.75
2023-03-25T08:10:22.515Z,99905.50
2023-03-25T08:12:53.729Z,99906.44
2023-03-25T08:15:24.651Z,99904.44
2023-03-25T08:17:54.968Z,99908.69
2023-03-25T08:20:21.941Z,99915.97
2023-03-25T08:22:48.927Z,99909.72
2023-03-25T08:25:16.100Z,99902.88
2023-03-25T08:27:43.506Z,99909.88
2023-03-25T08:30:10.990Z,99913.53
2023-03-25T08:32:38.872Z,99908.31
2023-03-25T08:35:06.853Z,99912.53
2023-03-25T08:37:37.986Z,99902.72
2023-03-25T08:40:09.735Z,99908.72
2023-03-25T08:42:37.852Z,99895.69
2023-03-25T08:45:06.584Z,99913.75
2023-03-25T08:47:33.589Z,99916.63
2023-03-25T08:50:00.967Z,99897.91
2023-03-25T08:52:28.215Z,99918.50
2023-03-25T08:54:55.097Z,99934.22
2023-03-25T08:57:22.041Z,99937.63
2023-03-25T08:59:51.304Z,99911.16
2023-03-25T09:02:18.244Z,99918.56
2023-03-25T09:04:45.169Z,99911.13
2023-03-25T09:07:12.872Z,99903.97
2023-03-25T09:09:41.337Z,99906.88
2023-03-25T09:12:09.359Z,99902.00
2023-03-25T09:14:37.318Z,99904.88
2023-03-25T09:17:06.145Z,99906.91
2023-03-25T09:19:35.115Z,99907.47
2023-03-25T09:22:01.990Z,99914.00
2023-03-25T09:24:28.908Z,99906.59
2023-03-25T09:26:55.836Z,99920.97
2023-03-25T09:29:22.758Z,99911.81
2023-03-25T09:31:49.614Z,99912.84
2023-03-25T09:34:16.512Z,99909.53
2023-03-25T09:36:43.457Z,99898.59
2023-03-25T09:39:10.474Z,99913.84
2023-03-25T09:42:04.492Z,99906.00
2023-03-25T09:44:39.377Z,99912.06
2023-03-25T09:47:15.569Z,99898.41
2023-03-25T09:49:45.845Z,99911.50
2023-03-25T09:52:18.844Z,99869.72
2023-03-25T09:54:59.971Z,99908.66
2023-03-25T09:57:30.907Z,99909.81
2023-03-25T10:00:01.596Z,99905.06
2023-03-25T10:02:43.731Z,99914.91
2023-03-25T10:05:34.218Z,99908.25
2023-03-25T10:08:20.022Z,99907.06
2023-03-25T10:11:03.200Z,99898.56
2023-03-25T10:13:41.776Z,99894.13
2023-03-25T10:16:42.773Z,99891.16
2023-03-25T10:19:17.506Z,99904.50
2023-03-25T10:22:02.303Z,99888.50
2023-03-25T10:24:39.469Z,99899.47
2023-03-25T10:27:12.217Z,99902.25
2023-03-25T10:29:44.266Z,99883.53
2023-03-25T10:32:18.727Z,99901.88
2023-03-25T10:34:50.903Z,99894.47
2023-03-25T10:37:29.327Z,99900.28
2023-03-25T10:40:08.625Z,99902.19
2023-03-25T10:42:48.957Z,99910.13
2023-03-25T10:45:18.512Z,99902.16
2023-03-25T10:47:48.478Z,99916.06
2023-03-25T10:50:17.813Z,99905.56
2023-03-25T10:52:46.450Z,99922.56
2023-03-25T10:55:28.963Z,99929.69
2023-03-25T10:57:56.755Z,99952.88
2023-03-25T11:00:26.627Z,99948.59
2023-03-25T11:02:56.260Z,99975.94
2023-03-25T11:05:28.494Z,99990.41
2023-03-25T11:08:08.822Z,99991.59
2023-03-25T11:10:49.274Z,99998.50
2023-03-25T11:13:22.171Z,99989.41
2023-03-25T11:15:50.133Z,99975.84
2023-03-25T11:18:40.282Z,99981.56
2023-03-25T11:21:13.889Z,99963.81
2023-03-25T11:23:49.280Z,99967.72
2023-03-25T11:26:22.010Z,99967.75
2023-03-25T11:28:55.193Z,99952.25
2023-03-25T11:31:27.696Z,99947.38
2023-03-25T11:34:12.906Z,99918.41
2023-03-25T11:36:43.495Z,99915.75
2023-03-25T11:39:27.471Z,99906.56
2023-03-25T11:41:55.548Z,99861.78
2023-03-25T11:44:25.643Z,99915.81
2023-03-25T11:46:57.216Z,99919.47
2023-03-25T11:49:30.225Z,99890.44
2023-03-25T11:52:03.494Z,99902.50
2023-03-25T11:54:31.288Z,99888.75
2023-03-25T11:56:58.093Z,99876.06
2023-03-25T11:59:46.750Z,99897.97
2023-03-25T12:02:19.430Z,99895.06
2023-03-25T12:05:03.244Z,99895.69
2023-03-25T12:07:41.435Z,99897.41
2023-03-25T12:10:15.884Z,99902.69
2023-03-25T12:12:47.777Z,99894.31
2023-03-25T12:15:33.569Z,99893.50
2023-03-25T12:18:32.896Z,99900.31
2023-03-25T12:21:28.982Z,99843.88
2023-03-25T12:24:07.805Z,99896.09
2023-03-25T12:26:49.826Z,99885.66
2023-03-25T12:29:25.897Z,99898.31
2023-03-25T12:32:04.688Z,99895.41
2023-03-25T12:34:34.789Z,99895.88
2023-03-25T12:37:39.659Z,99891.31
2023-03-25T12:40:28.644Z,99890.59
2023-03-25T12:43:05.901Z,99894.19
2023-03-25T12:46:11.171Z,99911.09
2023-03-25T12:48:45.374Z,99937.03
2023-03-25T12:51:21.542Z,99908.75
2023-03-25T12:53:48.338Z,99907.19
2023-03-25T12:56:29.674Z,99905.72
2023-03-25T12:59:29.344Z,99914.22
2023-03-25T13:02:12.009Z,99878.53
2023-03-25T13:05:18.914Z,99906.09
2023-03-25T13:08:11.862Z,99916.03
2023-03-25T13:10:42.116Z,99931.25
2023-03-25T13:13:17.922Z,99940.00
2023-03-25T13:15:49.817Z,99939.03
2023-03-25T13:18:25.731Z,99931.81
2023-03-25T13:21:15.956Z,99933.53
2023-03-25T13:23:47.080Z,99926.47
2023-03-25T13:26:19.821Z,99925.41
2023-03-25T13:29:09.730Z,99917.69
2023-03-25T13:31:42.722Z,99927.16
2023-03-25T13:34:19.607Z,99921.06
2023-03-25T13:37:10.714Z,99917.81
2023-03-25T13:40:15.034Z,99916.88
2023-03-25T13:42:56.255Z,99915.06
2023-03-25T13:45:25.061Z,99904.47
2023-03-25T13:48:07.626Z,99903.28
2023-03-25T13:50:37.027Z,99908.50
2023-03-25T14:04:07.004Z,99902.75
2023-03-25T14:06:55.313Z,99903.50
2023-03-25T14:09:37.490Z,99915.28
2023-03-25T14:12:08.593Z,99916.47
2023-03-25T14:14:42.191Z,99913.88
2023-03-25T14:17:10.683Z,99908.19
2023-03-25T14:19:41.335Z,99882.22
2023-03-25T14:22:21.134Z,99877.69
2023-03-25T14:24:50.410Z,99875.78
2023-03-25T14:27:29.977Z,99881.00
2023-03-25T14:30:01.035Z,99881.03
2023-03-25T14:32:38.445Z,99883.72
2023-03-25T14:35:31.800Z,99878.03
2023-03-25T14:38:08.023Z,99871.63
2023-03-25T14:43:40.498Z,99893.63
2023-03-25T14:46:13.509Z,99888.34
2023-03-25T14:48:47.167Z,99886.81
2023-03-25T14:51:25.931Z,99890.34
2023-03-25T14:54:02.648Z,99886.97
2023-03-25T14:56:37.024Z,99884.38
2023-03-25T14:59:17.094Z,99887.44
2023-03-25T15:01:45.364Z,99893.47
2023-03-25T15:04:13.184Z,99887.19
2023-03-25T15:06:41.560Z,99891.03
2023-03-25T15:09:13.186Z,99885.56
2023-03-25T15:11:44.127Z,99878.03
2023-03-25T15:14:20.001Z,99876.03
2023-03-25T15:16:50.092Z,99879.38
2023-03-25T15:19:20.686Z,99879.50
2023-03-25T15:22:03.666Z,99866.19
2023-03-25T15:24:35.679Z,99861.50
2023-03-25T15:27:14.715Z,99858.97
2023-03-25T15:29:44.266Z,99859.53
2023-03-25T15:32:17.084Z,99862.69
2023-03-25T15:35:04.095Z,99871.13
2023-03-25T15:37:56.031Z,99863.25
2023-03-25T15:40:48.102Z,99857.63
2023-03-25T15:44:00.641Z,99858.44
2023-03-25T15:46:50.298Z,99850.56
2023-03-25T15:49:42.076Z,99843.22
2023-03-25T15:52:24.576Z,99852.00
2023-03-25T15:55:02.509Z,99869.03
2023-03-25T15:57:38.451Z,99870.16
2023-03-25T16:00:16.005Z,99870.63
2023-03-25T16:02:48.768Z,99873.88
2023-03-25T16:05:17.812Z,99863.88
2023-03-25T16:07:46.662Z,99877.81
2023-03-25T16:10:20.986Z,99882.91
2023-03-25T16:12:50.232Z,99889.81
2023-03-25T16:15:24.812Z,99878.94
2023-03-25T16:17:52.360Z,99899.69
2023-03-25T16:20:23.696Z,99903.44
2023-03-25T16:22:54.275Z,99889.94
2023-03-25T16:25:27.259Z,99884.44
2023-03-25T16:27:58.298Z,99882.16
2023-03-25T16:30:48.550Z,99863.91
2023-03-25T16:33:18.684Z,99879.72
2023-03-25T16:35:57.505Z,99880.53
2023-03-25T16:38:29.202Z,99871.09
2023-03-25T16:41:14.041Z,99880.03
2023-03-25T16:43:41.841Z,99882.00
2023-03-25T16:46:11.329Z,99878.72
2023-03-25T16:48:41.458Z,99866.66
2023-03-25T16:51:30.208Z,99866.16
2023-03-25T16:54:00.925Z,99860.63
2023-03-25T16:56:33.230Z,99866.66
2023-03-25T16:59:06.425Z,99865.00
2023-03-25T17:01:38.836Z,99859.97
2023-03-25T17:04:27.212Z,99858.69
2023-03-25T17:07:01.721Z,99848.06
2023-03-25T17:09:34.604Z,99845.31
2023-03-25T17:12:06.993Z,99844.19
2023-03-25T17:14:41.204Z,99838.94
2023-03-25T17:17:12.616Z,99847.59
2023-03-25T17:19:49.541Z,99842.72
2023-03-25T17:22:25.623Z,99838.81
2023-03-25T17:24:58.465Z,99837.81
2023-03-25T17:27:27.605Z,99844.69
2023-03-25T17:29:59.159Z,99840.91
2023-03-25T17:32:26.295Z,99835.56
2023-03-25T17:35:06.892Z,99839.41
2023-03-25T17:37:34.295Z,99838.94
2023-03-25T17:40:11.922Z,99841.72
2023-03-25T17:42:40.583Z,99837.81
2023-03-25T17:45:14.180Z,99835.84
2023-03-25T17:47:40.930Z,99849.56
2023-03-25T17:50:14.884Z,99848.41
2023-03-25T17:52:41.919Z,99851.50
2023-03-25T17:55:09.424Z,99841.91
2023-03-25T17:57:37.678Z,99852.97
2023-03-25T18:00:14.509Z,99866.31
2023-03-25T18:02:41.937Z,99877.56
2023-03-25T18:05:10.980Z,99861.59
2023-03-25T18:07:38.004Z,99871.81
2023-03-25T18:10:16.338Z,99866.47
2023-03-25T18:12:43.544Z,99877.09
2023-03-25T18:15:10.806Z,99877.56
2023-03-25T18:17:38.129Z,99872.53
2023-03-25T18:20:17.967Z,99870.75
2023-03-25T18:22:45.087Z,99875.31
2023-03-25T18:25:14.116Z,99874.31
2023-03-25T18:27:44.178Z,99887.03
2023-03-25T18:30:21.695Z,99879.53
2023-03-25T18:32:48.742Z,99881.84
2023-03-25T18:35:15.651Z,99885.91
2023-03-25T18:37:43.381Z,99897.66
2023-03-25T18:40:23.561Z,99899.13
2023-03-25T18:42:51.674Z,99896.16
2023-03-25T18:45:20.542Z,99833.25
2023-03-25T18:47:47.974Z,99903.84
2023-03-25T18:50:27.414Z,99903.19
2023-03-25T18:52:55.158Z,99916.72
2023-03-25T18:55:22.648Z,99913.78
2023-03-25T18:57:49.700Z,99851.31
2023-03-25T19:00:21.733Z,99911.84
2023-03-25T19:02:49.552Z,99911.34
2023-03-25T19:05:17.770Z,99915.41
2023-03-25T19:07:45.268Z,99921.94
2023-03-25T19:10:24.135Z,99920.97
2023-03-25T19:12:51.816Z,99922.94
2023-03-25T19:15:21.265Z,99924.88
2023-03-25T19:17:49.362Z,99927.81
2023-03-25T19:20:19.001Z,99934.50
2023-03-25T19:22:46.278Z,99925.38
2023-03-25T19:25:14.257Z,99943.63
2023-03-25T19:27:42.938Z,99947.53
2023-03-25T19:30:12.930Z,99943.63
2023-03-25T19:32:42.956Z,99950.47
2023-03-25T19:35:11.777Z,99947.53
2023-03-25T19:37:39.953Z,99948.81
2023-03-25T19:40:09.540Z,99958.63
2023-03-25T19:42:37.392Z,99961.06
2023-03-25T19:45:06.202Z,99962.22
2023-03-25T19:47:33.215Z,99974.91
2023-03-25T19:50:00.278Z,99964.97
2023-03-25T19:52:29.747Z,99970.84
2023-03-25T19:54:56.668Z,99961.72
2023-03-25T19:57:23.650Z,99955.66
2023-03-25T19:59:51.268Z,99970.19
2023-03-25T20:02:18.766Z,99980.78
2023-03-25T20:04:45.983Z,99992.19
2023-03-25T20:07:12.925Z,99981.13
2023-03-25T20:09:41.784Z,99983.88
2023-03-25T20:12:09.056Z,99984.69
2023-03-25T20:14:36.241Z,99992.84
2023-03-25T20:17:03.367Z,99992.00
2023-03-25T20:19:30.486Z,99993.28
2023-03-25T20:21:57.496Z,99984.13
2023-03-25T20:24:24.859Z,99996.88
2023-03-25T20:26:52.326Z,99999.16
2023-03-25T20:29:20.162Z,100001.44
2023-03-25T20:31:47.463Z,100007.47
2023-03-25T20:34:14.640Z,100008.97
2023-03-25T20:36:41.843Z,100012.56
2023-03-25T20:39:08.844Z,99993.50
2023-03-25T20:41:36.113Z,100012.91
2023-03-25T20:44:03.189Z,100012.88
2023-03-25T20:46:31.652Z,100021.63
2023-03-25T20:48:58.975Z,100014.97
2023-03-25T20:51:26.106Z,100031.28
2023-03-25T20:53:53.556Z,100026.06
2023-03-25T20:56:20.818Z,100028.19
2023-03-25T20:58:47.773Z,100034.59
2023-03-25T21:01:15.691Z,100039.94
2023-03-25T21:03:43.146Z,100037.38
2023-03-25T21:06:22.898Z,100048.28
2023-03-25T21:08:51.532Z,100046.97
2023-03-25T21:11:18.694Z,100037.66
2023-03-25T21:13:45.802Z,100039.59
2023-03-25T21:16:12.848Z,100049.25
2023-03-25T21:18:39.954Z,100063.44
2023-03-25T21:21:07.171Z,100049.53
2023-03-25T21:23:34.068Z,100048.56
2023-03-25T21:26:03.646Z,100053.44
2023-03-25T21:28:32.392Z,100059.03
2023-03-25T21:31:04.531Z,100055.28
2023-03-25T21:33:37.382Z,100067.56
2023-03-25T21:36:06.605Z,100070.00
2023-03-25T21:38:34.655Z,100065.94
2023-03-25T21:41:04.716Z,100070.13
2023-03-25T21:43:32.820Z,100060.16
2023-03-25T21:46:05.408Z,100065.03
2023-03-25T21:48:34.156Z,100012.97
2023-03-25T21:51:04.048Z,100068.34
2023-03-25T21:53:32.140Z,100073.50
2023-03-25T21:56:03.884Z,100083.56
2023-03-25T21:58:37.645Z,100080.00
2023-03-25T22:01:07.442Z,100079.75
2023-03-25T22:03:37.575Z,100082.34
2023-03-25T22:06:05.971Z,100088.56
2023-03-25T22:08:33.371Z,100091.38
2023-03-25T22:11:18.595Z,100087.44
2023-03-25T22:13:46.820Z,100092.03
2023-03-25T22:16:15.897Z,100095.59
2023-03-25T22:18:43.248Z,100075.34
2023-03-25T22:21:16.432Z,100091.22
2023-03-25T22:23:46.066Z,100106.38
2023-03-25T22:26:14.716Z,100100.81
2023-03-25T22:28:42.788Z,100101.59
2023-03-25T22:31:10.810Z,100096.69
2023-03-25T22:33:38.708Z,100114.13
2023-03-25T22:36:11.975Z,100116.34
2023-03-25T22:38:40.927Z,100113.75
2023-03-25T22:41:09.092Z,100119.13
2023-03-25T22:43:36.984Z,100109.19
2023-03-25T22:46:05.835Z,100123.03
2023-03-25T22:48:34.153Z,100103.25
2023-03-25T22:51:01.296Z,100128.59
2023-03-25T22:53:28.881Z,100134.78
2023-03-25T22:55:57.099Z,100133.00
2023-03-25T22:58:27.467Z,100133.31
2023-03-25T23:00:55.701Z,100134.00
2023-03-25T23:03:24.030Z,100138.34
2023-03-25T23:06:06.406Z,100143.47
2023-03-25T23:08:35.956Z,100145.59
2023-03-25T23:11:10.007Z,100140.38
2023-03-25T23:13:37.260Z,100147.06
2023-03-25T23:16:07.457Z,100142.78
2023-03-25T23:18:36.767Z,100150.47
2023-03-25T23:21:04.151Z,100161.28
2023-03-25T23:23:31.143Z,100159.94
2023-03-25T23:26:16.712Z,100160.16
2023-03-25T23:28:45.661Z,100166.00
2023-03-25T23:31:28.638Z,100154.22
2023-03-25T23:34:00.647Z,100161.09
2023-03-25T23:36:30.467Z,100152.41
2023-03-25T23:38:59.331Z,100166.09
2023-03-25T23:41:26.640Z,100174.59
2023-03-25T23:43:56.165Z,100183.25
2023-03-25T23:46:24.747Z,100183.41
2023-03-25T23:48:55.030Z,100184.13
2023-03-25T23:51:24.537Z,100179.75
2023-03-25T23:53:52.560Z,100192.66
2023-03-25T23:56:22.297Z,100195.84
2023-03-25T23:58:49.376Z,100203.91
